Time;durP1;ratioP1;P1;durP2;ratioP2;P2;SDS_P1;SDS_P2;PMS_P1;PMS_P2;Temp;Humidity;BMP_temperature;BMP_pressure;BME280_temperature;BME280_humidity;BME280_pressure;Samples;Min_cycle;Max_cycle;Signal;HPM_P1;HPM_P2
2023/04/04 00:01:03;;;;;;;13.83;5.93;;;-1.40;61.60;;;;;;5028523;28;20518;-50
2023/04/04 00:03:30;;;;;;;9.40;4.93;;;-1.50;58.80;;;;;;5028643;28;20834;-50
2023/04/04 00:05:57;;;;;;;6.30;3.80;;;-1.50;53.10;;;;;;5019910;28;20594;-50
2023/04/04 00:08:23;;;;;;;6.90;2.77;;;-1.50;54.10;;;;;;5019692;28;20859;-50
2023/04/04 00:10:57;;;;;;;3.83;3.20;;;-1.50;48.40;;;;;;5023798;28;20633;-50
2023/04/04 00:13:25;;;;;;;9.07;5.20;;;-1.60;41.00;;;;;;5019411;28;20472;-50
2023/04/04 00:15:52;;;;;;;6.77;3.93;;;-1.50;21.70;;;;;;5021618;28;20866;-50
2023/04/04 00:18:18;;;;;;;10.67;5.97;;;-1.60;29.10;;;;;;5027732;28;20440;-55
2023/04/04 00:20:45;;;;;;;6.63;4.40;;;-1.70;29.90;;;;;;5031259;28;20506;-54
2023/04/04 00:23:11;;;;;;;11.40;4.90;;;-1.70;32.50;;;;;;5025473;28;20836;-55
2023/04/04 00:25:38;;;;;;;12.47;4.50;;;-1.60;33.90;;;;;;5019486;28;20534;-56
2023/04/04 00:28:06;;;;;;;7.57;5.93;;;-1.60;43.80;;;;;;5026321;28;20520;-54
2023/04/04 00:30:34;;;;;;;11.57;6.80;;;-1.70;46.70;;;;;;5029851;28;20472;-55
2023/04/04 00:33:02;;;;;;;14.83;7.57;;;-1.70;45.60;;;;;;5026017;28;20493;-56
2023/04/04 00:35:28;;;;;;;12.43;7.57;;;-1.70;44.60;;;;;;5014986;28;20472;-55
2023/04/04 00:37:55;;;;;;;12.87;7.93;;;-1.70;40.40;;;;;;5027611;28;20455;-55
2023/04/04 00:40:21;;;;;;;12.27;5.87;;;-1.80;42.80;;;;;;5032416;28;21073;-54
2023/04/04 00:42:48;;;;;;;8.07;5.43;;;-1.80;44.00;;;;;;5025555;28;20542;-55
2023/04/04 00:45:16;;;;;;;17.20;6.93;;;-1.60;93.60;;;;;;5024916;28;20892;-55
2023/04/04 00:47:43;;;;;;;7.77;5.53;;;-1.70;72.20;;;;;;5031736;28;20476;-54
2023/04/04 00:50:10;;;;;;;11.10;6.23;;;-1.70;22.10;;;;;;5031673;28;20961;-56
2023/04/04 00:52:37;;;;;;;12.03;8.37;;;-1.70;22.20;;;;;;5028024;28;20535;-55
2023/04/04 00:55:04;;;;;;;10.37;7.10;;;-1.70;22.60;;;;;;5026774;28;20484;-56
2023/04/04 00:57:33;;;;;;;12.70;7.60;;;-1.70;21.80;;;;;;5038473;28;20451;-55
2023/04/04 01:00:03;;;;;;;8.30;6.00;;;-1.70;82.40;;;;;;5025671;28;20839;-56
2023/04/04 01:02:31;;;;;;;8.63;2.90;;;-1.70;23.60;;;;;;5017336;28;20938;-56
2023/04/04 01:04:57;;;;;;;5.30;3.27;;;-1.70;30.30;;;;;;5014458;28;20484;-54
2023/04/04 01:07:24;;;;;;;3.23;2.70;;;-1.70;23.50;;;;;;5021657;28;20454;-55
2023/04/04 01:09:51;;;;;;;6.80;3.30;;;-1.80;27.10;;;;;;5011856;28;20456;-55
2023/04/04 01:12:18;;;;;;;6.10;2.90;;;-1.90;27.20;;;;;;5020114;28;20494;-55
2023/04/04 01:14:45;;;;;;;3.77;2.87;;;-1.90;78.70;;;;;;5027828;28;20508;-54
2023/04/04 01:17:12;;;;;;;4.00;3.30;;;-2.00;31.00;;;;;;5027124;28;20546;-54
2023/04/04 01:19:46;;;;;;;10.87;3.73;;;-2.00;35.70;;;;;;5024979;28;20449;-55
2023/04/04 01:22:14;;;;;;;3.20;2.90;;;-2.10;35.90;;;;;;5029665;28;20460;-55
2023/04/04 01:24:42;;;;;;;3.83;3.40;;;-2.10;32.80;;;;;;5016599;28;20885;-55
2023/04/04 01:27:10;;;;;;;4.97;3.20;;;-2.20;31.10;;;;;;5031005;28;20445;-54
2023/04/04 01:29:37;;;;;;;3.40;3.03;;;-2.10;99.90;;;;;;5023167;28;20515;-54
2023/04/04 01:32:08;;;;;;;4.13;2.73;;;-1.90;99.90;;;;;;5032239;28;20824;-54
2023/04/04 01:34:42;;;;;;;6.90;3.40;;;-2.00;25.80;;;;;;5030306;28;20520;-55
2023/04/04 01:37:16;;;;;;;5.17;2.90;;;-2.10;29.50;;;;;;5027671;28;20454;-54
2023/04/04 01:39:48;;;;;;;3.87;3.50;;;-2.20;28.00;;;;;;5023182;28;20475;-54
2023/04/04 01:42:18;;;;;;;4.03;2.70;;;-2.20;24.70;;;;;;5021880;28;20482;-55
2023/04/04 01:44:46;;;;;;;6.33;3.17;;;-2.30;99.90;;;;;;5028694;28;20562;-55
2023/04/04 01:47:12;;;;;;;2.60;2.40;;;-2.30;99.90;;;;;;5031027;28;20471;-55
2023/04/04 01:49:39;;;;;;;3.00;2.70;;;-2.30;99.90;;;;;;5026617;28;20485;-55
2023/04/04 01:52:06;;;;;;;2.60;2.40;;;-2.30;99.90;;;;;;5016700;28;20467;-55
2023/04/04 01:54:34;;;;;;;4.97;3.07;;;-2.30;99.90;;;;;;5024065;28;20606;-55
2023/04/04 01:57:01;;;;;;;5.77;2.77;;;-2.30;99.90;;;;;;5030494;28;20467;-55
2023/04/04 01:59:29;;;;;;;4.87;2.90;;;-2.30;99.90;;;;;;5035730;28;20459;-55
2023/04/04 02:01:56;;;;;;;2.80;2.60;;;-2.40;99.90;;;;;;5011387;28;20453;-56
2023/04/04 02:04:22;;;;;;;3.97;2.43;;;-2.40;99.90;;;;;;5024891;28;20468;-53
2023/04/04 02:06:51;;;;;;;2.80;2.43;;;-2.40;99.90;;;;;;5031445;28;20443;-56
2023/04/04 02:09:17;;;;;;;2.63;2.30;;;-2.40;99.90;;;;;;5031201;28;20994;-54
2023/04/04 02:11:44;;;;;;;5.03;2.70;;;-2.50;78.60;;;;;;5024209;28;20987;-55
2023/04/04 02:14:11;;;;;;;3.90;2.43;;;-2.40;99.90;;;;;;5019123;28;20988;-55
2023/04/04 02:16:38;;;;;;;2.93;2.57;;;-2.30;99.90;;;;;;5011053;28;21052;-55
2023/04/04 02:19:05;;;;;;;2.30;2.20;;;-2.40;99.90;;;;;;5028620;28;20460;-54
2023/04/04 02:21:32;;;;;;;4.30;2.80;;;-2.50;99.90;;;;;;5016611;28;21055;-55
2023/04/04 02:23:58;;;;;;;3.00;2.13;;;-2.60;99.90;;;;;;5053403;28;20899;-54
2023/04/04 02:26:25;;;;;;;3.77;2.43;;;-2.60;99.90;;;;;;5046273;28;20833;-55
2023/04/04 02:28:51;;;;;;;6.20;3.00;;;-2.70;99.90;;;;;;5032969;28;20879;-54
2023/04/04 02:31:18;;;;;;;5.20;2.70;;;-2.50;99.90;;;;;;5034136;28;20517;-55
2023/04/04 02:33:46;;;;;;;3.57;2.43;;;-2.50;99.90;;;;;;5029166;28;20460;-54
2023/04/04 02:36:12;;;;;;;5.33;2.80;;;-2.40;99.90;;;;;;5031020;28;20473;-55
2023/04/04 02:38:39;;;;;;;2.37;2.00;;;-2.50;99.90;;;;;;5037295;28;20450;-54
2023/04/04 02:41:06;;;;;;;8.93;2.83;;;-2.60;99.90;;;;;;5028004;28;20465;-55
2023/04/04 02:43:33;;;;;;;4.33;2.57;;;-2.60;99.90;;;;;;5024961;28;21183;-54
2023/04/04 02:45:59;;;;;;;3.80;2.43;;;-2.60;99.90;;;;;;5031376;28;20487;-54
2023/04/04 02:48:26;;;;;;;6.90;2.60;;;-2.70;99.90;;;;;;5032200;28;20485;-54
2023/04/04 02:50:54;;;;;;;3.00;2.50;;;-2.80;99.90;;;;;;5014608;28;20468;-56
2023/04/04 02:53:21;;;;;;;6.80;2.70;;;-2.90;99.90;;;;;;5023750;28;20863;-56
2023/04/04 02:55:47;;;;;;;4.00;2.73;;;-2.70;99.90;;;;;;5028325;28;20486;-54
2023/04/04 02:58:15;;;;;;;4.60;2.60;;;-2.60;99.90;;;;;;5029513;28;20837;-54
2023/04/04 03:00:41;;;;;;;2.80;2.50;;;-2.70;99.90;;;;;;5023347;28;21299;-61
2023/04/04 03:03:08;;;;;;;3.37;2.57;;;-2.80;99.90;;;;;;5020813;28;20511;-55
2023/04/04 03:05:34;;;;;;;2.00;1.90;;;-2.90;99.90;;;;;;5032853;28;20501;-55
2023/04/04 03:08:03;;;;;;;3.13;2.23;;;-2.90;99.90;;;;;;5033862;28;20449;-54
2023/04/04 03:10:30;;;;;;;2.47;2.27;;;-2.90;99.90;;;;;;5033647;28;20478;-54
2023/04/04 03:12:57;;;;;;;2.73;2.17;;;-2.90;99.90;;;;;;5038241;28;20462;-55
2023/04/04 03:15:24;;;;;;;4.10;2.70;;;-2.90;99.90;;;;;;5034365;28;20552;-54
2023/04/04 03:17:51;;;;;;;2.73;1.97;;;-2.90;99.90;;;;;;5025249;28;20443;-55
2023/04/04 03:20:18;;;;;;;2.70;2.13;;;-2.90;99.90;;;;;;5031529;28;20471;-54
2023/04/04 03:22:44;;;;;;;3.60;3.03;;;-3.00;99.90;;;;;;5014165;28;20543;-56
2023/04/04 03:25:12;;;;;;;5.27;3.07;;;-2.90;99.90;;;;;;5013201;28;20515;-54
2023/04/04 03:27:39;;;;;;;3.53;3.23;;;-2.90;99.90;;;;;;5013545;28;20488;-53
2023/04/04 03:30:07;;;;;;;3.23;2.57;;;-2.90;99.90;;;;;;5022844;28;20488;-55
2023/04/04 03:32:34;;;;;;;4.37;2.20;;;-2.90;99.90;;;;;;5025086;28;21003;-56
2023/04/04 03:35:00;;;;;;;3.73;2.83;;;-3.00;99.90;;;;;;5032698;28;20463;-54
2023/04/04 03:37:28;;;;;;;3.03;2.03;;;-2.90;99.90;;;;;;5028886;28;20462;-54
2023/04/04 03:39:55;;;;;;;3.20;2.70;;;-2.90;99.90;;;;;;5019418;28;20462;-55
2023/04/04 03:42:23;;;;;;;2.50;2.30;;;-3.00;99.90;;;;;;5029390;28;20494;-54
2023/04/04 03:44:50;;;;;;;4.23;3.00;;;-3.10;99.90;;;;;;5025653;28;20476;-54
2023/04/04 03:47:16;;;;;;;4.80;2.87;;;-3.20;99.90;;;;;;5023451;28;20828;-55
2023/04/04 03:49:43;;;;;;;2.97;2.40;;;-3.20;99.90;;;;;;5030322;28;20645;-55
2023/04/04 03:52:09;;;;;;;6.07;3.20;;;-3.20;99.90;;;;;;5019146;28;20518;-55
2023/04/04 03:54:36;;;;;;;4.00;3.00;;;-3.30;99.90;;;;;;5016957;28;20511;-55
2023/04/04 03:57:02;;;;;;;3.90;2.97;;;-3.30;99.90;;;;;;5024997;28;20460;-55
2023/04/04 03:59:30;;;;;;;8.30;3.80;;;-3.20;99.90;;;;;;5024334;28;20565;-55
2023/04/04 04:01:57;;;;;;;2.60;2.37;;;-3.20;99.90;;;;;;5021252;28;20839;-56
2023/04/04 04:04:23;;;;;;;3.47;3.20;;;-3.20;99.90;;;;;;5031317;28;20903;-53
2023/04/04 04:06:50;;;;;;;3.37;3.07;;;-3.20;99.90;;;;;;5022484;28;20979;-54
2023/04/04 04:09:17;;;;;;;4.43;2.90;;;-3.20;99.90;;;;;;5028033;28;20480;-54
2023/04/04 04:11:44;;;;;;;5.23;3.43;;;-3.30;99.90;;;;;;5030329;28;20997;-54
2023/04/04 04:14:11;;;;;;;4.27;3.17;;;-3.40;99.90;;;;;;5030750;28;20530;-56
2023/04/04 04:16:41;;;;;;;2.63;2.43;;;-3.30;99.90;;;;;;5025271;28;20934;-55
2023/04/04 04:19:07;;;;;;;3.50;2.23;;;-3.30;99.90;;;;;;5017111;28;20478;-54
2023/04/04 04:21:34;;;;;;;4.67;2.37;;;-3.20;99.90;;;;;;5019197;28;20452;-54
2023/04/04 04:24:00;;;;;;;5.30;3.03;;;-3.30;99.90;;;;;;5025906;28;20456;-54
2023/04/04 04:26:27;;;;;;;5.33;2.37;;;-3.40;99.90;;;;;;5023572;28;20569;-54
2023/04/04 04:28:54;;;;;;;3.33;2.30;;;-3.40;99.90;;;;;;5022779;28;20577;-55
2023/04/04 04:31:20;;;;;;;5.00;2.90;;;-3.40;99.90;;;;;;5021038;28;20554;-54
2023/04/04 04:33:48;;;;;;;4.03;2.60;;;-3.40;99.90;;;;;;5025614;28;20460;-54
2023/04/04 04:36:15;;;;;;;3.13;2.87;;;-3.40;99.90;;;;;;5020418;28;20569;-54
2023/04/04 04:38:41;;;;;;;3.23;2.37;;;-3.30;99.90;;;;;;5035971;28;20520;-54
2023/04/04 04:41:08;;;;;;;5.03;2.67;;;-3.30;99.90;;;;;;5052227;28;20488;-55
2023/04/04 04:43:35;;;;;;;4.80;3.17;;;-3.40;99.90;;;;;;5043313;28;20518;-55
2023/04/04 04:46:02;;;;;;;6.50;3.87;;;-3.40;99.90;;;;;;5023330;28;20470;-54
2023/04/04 04:48:28;;;;;;;6.70;4.57;;;-3.40;99.90;;;;;;5030511;28;20473;-54
2023/04/04 04:50:56;;;;;;;12.57;6.07;;;-3.30;99.90;;;;;;5024199;28;20496;-55
2023/04/04 04:53:23;;;;;;;12.53;8.13;;;-3.30;99.90;;;;;;5031931;28;20506;-56
2023/04/04 04:55:51;;;;;;;12.10;7.20;;;-3.30;99.90;;;;;;5044066;28;20496;-55
2023/04/04 04:58:20;;;;;;;20.83;9.07;;;-3.30;99.90;;;;;;5041126;28;20460;-54
2023/04/04 05:00:46;;;;;;;18.87;10.30;;;-3.30;99.90;;;;;;5019796;28;20484;-53
2023/04/04 05:03:13;;;;;;;15.87;8.70;;;-3.20;99.90;;;;;;5023860;28;20455;-54
2023/04/04 05:05:40;;;;;;;11.83;7.13;;;-3.20;99.90;;;;;;5019231;28;20523;-54
2023/04/04 05:08:08;;;;;;;10.00;6.53;;;-3.20;99.90;;;;;;5011738;28;20464;-54
2023/04/04 05:10:34;;;;;;;8.27;4.95;;;-3.30;99.90;;;;;;5011656;28;20479;-54
2023/04/04 05:13:02;;;;;;;3.73;3.17;;;-3.20;99.90;;;;;;5029883;28;20724;-55
2023/04/04 05:15:29;;;;;;;6.90;3.63;;;-3.20;99.90;;;;;;5043439;22;20495;-56
2023/04/04 05:17:56;;;;;;;15.67;4.87;;;-3.00;99.90;;;;;;5046027;28;20537;-56
2023/04/04 05:20:23;;;;;;;12.90;7.20;;;-3.00;99.90;;;;;;5041113;28;20554;-54
2023/04/04 05:22:49;;;;;;;7.77;5.87;;;-3.00;99.90;;;;;;5038223;28;20448;-55
2023/04/04 05:25:17;;;;;;;5.30;4.80;;;-2.90;99.90;;;;;;5031101;28;20991;-55
2023/04/04 05:27:47;;;;;;;5.73;3.50;;;-2.90;99.90;;;;;;5040338;28;20953;-55
2023/04/04 05:30:14;;;;;;;8.00;3.17;;;-2.80;99.90;;;;;;5051019;28;20854;-55
2023/04/04 05:32:40;;;;;;;4.90;3.17;;;-2.70;99.90;;;;;;5042420;28;20463;-54
2023/04/04 05:35:07;;;;;;;5.30;3.57;;;-2.60;99.90;;;;;;5049895;28;20509;-54
2023/04/04 05:37:38;;;;;;;5.20;4.70;;;-2.50;99.90;;;;;;5047192;28;20519;-54
2023/04/04 05:40:05;;;;;;;4.30;3.90;;;-2.40;99.90;;;;;;5049911;28;20514;-54
2023/04/04 05:42:33;;;;;;;10.07;2.90;;;-2.40;99.90;;;;;;5050246;28;20464;-55
2023/04/04 05:45:00;;;;;;;4.20;2.67;;;-2.30;99.90;;;;;;5050460;28;20467;-54
2023/04/04 05:47:26;;;;;;;7.00;3.30;;;-2.30;99.90;;;;;;5050670;28;20453;-54
2023/04/04 05:49:53;;;;;;;3.27;2.60;;;-2.20;99.90;;;;;;5051242;28;20529;-55
2023/04/04 05:52:19;;;;;;;4.03;2.50;;;-2.00;99.90;;;;;;5051021;28;20483;-54
2023/04/04 05:54:47;;;;;;;2.87;2.10;;;-1.90;99.90;;;;;;5031501;28;20971;-54
2023/04/04 05:57:13;;;;;;;3.97;2.03;;;-1.80;99.90;;;;;;5042701;28;20947;-55
2023/04/04 05:59:41;;;;;;;2.90;2.40;;;-1.60;99.90;;;;;;5044153;28;20472;-56
2023/04/04 06:02:08;;;;;;;3.93;2.63;;;-1.30;99.90;;;;;;5046978;28;20462;-56
2023/04/04 06:04:34;;;;;;;4.10;2.40;;;-1.00;25.00;;;;;;5046372;28;20461;-56
2023/04/04 06:07:01;;;;;;;3.23;2.00;;;-0.70;44.70;;;;;;5050613;28;20492;-55
2023/04/04 06:09:28;;;;;;;3.73;2.30;;;-0.30;53.80;;;;;;5054383;28;20485;-54
2023/04/04 06:11:54;;;;;;;2.90;1.83;;;-0.20;97.60;;;;;;5054579;28;20447;-53
2023/04/04 06:14:21;;;;;;;3.20;2.67;;;-0.20;99.90;;;;;;5052334;28;20509;-54
2023/04/04 06:16:49;;;;;;;3.90;2.90;;;-0.10;99.90;;;;;;5051577;28;20488;-55
2023/04/04 06:19:16;;;;;;;5.00;2.77;;;0.00;99.90;;;;;;5054512;28;20525;-54
2023/04/04 06:21:42;;;;;;;2.47;2.10;;;0.00;99.90;;;;;;5054050;28;20538;-55
2023/04/04 06:24:09;;;;;;;3.37;1.83;;;-0.10;99.90;;;;;;5054177;28;20443;-55
2023/04/04 06:26:36;;;;;;;9.10;3.83;;;-0.20;99.90;;;;;;5054092;28;20468;-53
2023/04/04 06:29:03;;;;;;;4.40;3.57;;;0.10;99.90;;;;;;5051924;28;20812;-56
2023/04/04 06:31:30;;;;;;;9.50;6.33;;;0.30;99.90;;;;;;5054368;28;20916;-56
2023/04/04 06:34:00;;;;;;;6.80;3.43;;;0.60;99.90;;;;;;5049643;28;20469;-55
2023/04/04 06:36:26;;;;;;;8.77;5.33;;;1.00;99.90;;;;;;5054309;28;20463;-55
2023/04/04 06:38:53;;;;;;;6.47;3.53;;;1.00;99.90;;;;;;5047856;28;21350;-56
2023/04/04 06:41:20;;;;;;;4.20;2.60;;;1.30;99.90;;;;;;5052119;28;20474;-56
2023/04/04 06:43:47;;;;;;;4.90;3.60;;;1.30;99.90;;;;;;5052482;28;20534;-55
2023/04/04 06:46:14;;;;;;;6.20;2.73;;;1.50;26.60;;;;;;5051514;28;20484;-56
2023/04/04 06:48:41;;;;;;;15.53;3.63;;;1.80;38.20;;;;;;5050300;28;20865;-56
2023/04/04 06:51:10;;;;;;;5.20;4.00;;;1.90;53.50;;;;;;5038726;28;20489;-56
2023/04/04 06:53:37;;;;;;;4.77;2.97;;;1.70;70.50;;;;;;5048233;28;20834;-55
2023/04/04 06:56:04;;;;;;;8.80;5.53;;;1.30;62.80;;;;;;5053386;28;20487;-56
2023/04/04 06:58:31;;;;;;;8.17;3.60;;;1.30;39.90;;;;;;5040247;28;20461;-55
2023/04/04 07:00:58;;;;;;;8.17;4.40;;;1.30;48.70;;;;;;5049867;28;20457;-54
2023/04/04 07:03:25;;;;;;;4.53;3.23;;;1.50;42.00;;;;;;5042511;28;20464;-55
2023/04/04 07:05:52;;;;;;;4.00;3.60;;;1.70;45.60;;;;;;5050640;28;20579;-55
2023/04/04 07:08:20;;;;;;;6.40;2.63;;;1.90;51.50;;;;;;5050394;28;20975;-55
2023/04/04 07:10:46;;;;;;;4.87;2.90;;;2.00;72.60;;;;;;5049259;28;20493;-57
2023/04/04 07:13:13;;;;;;;8.30;7.50;;;1.90;89.40;;;;;;5048372;28;20463;-55
2023/04/04 07:15:40;;;;;;;3.40;2.70;;;2.00;87.10;;;;;;5045486;28;21213;-53
2023/04/04 07:18:07;;;;;;;2.33;2.03;;;2.30;83.30;;;;;;5043164;28;20537;-55
2023/04/04 07:20:34;;;;;;;4.27;2.53;;;2.10;88.90;;;;;;5050596;28;20455;-56
2023/04/04 07:23:00;;;;;;;3.30;2.57;;;2.10;91.40;;;;;;5040835;28;21280;-55
2023/04/04 07:25:28;;;;;;;2.73;1.80;;;2.30;95.90;;;;;;5056621;28;20918;-54
2023/04/04 07:27:55;;;;;;;3.03;2.10;;;2.90;99.90;;;;;;5053049;28;20449;-55
2023/04/04 07:30:25;;;;;;;3.23;2.93;;;2.80;99.90;;;;;;5052549;28;20487;-55
2023/04/04 07:32:57;;;;;;;4.67;1.73;;;3.00;99.90;;;;;;5051951;28;20521;-56
2023/04/04 07:35:24;;;;;;;5.67;3.67;;;3.10;99.90;;;;;;5050988;28;20587;-55
2023/04/04 07:37:50;;;;;;;2.30;2.10;;;3.30;99.90;;;;;;5045438;28;20457;-55
2023/04/04 07:40:18;;;;;;;4.50;1.90;;;3.50;99.90;;;;;;5048552;28;20846;-54
2023/04/04 07:42:49;;;;;;;3.63;2.00;;;3.50;99.90;;;;;;5052809;28;20477;-54
2023/04/04 07:45:16;;;;;;;9.20;3.10;;;3.60;99.90;;;;;;5052286;28;20490;-55
2023/04/04 07:47:44;;;;;;;3.43;2.20;;;3.70;99.90;;;;;;5036202;28;21025;-55
2023/04/04 07:50:11;;;;;;;4.13;2.43;;;3.70;99.90;;;;;;5029783;28;20494;-56
2023/04/04 07:52:38;;;;;;;2.90;2.13;;;3.80;99.90;;;;;;5040278;28;20540;-56
2023/04/04 07:55:06;;;;;;;3.87;2.87;;;4.20;99.90;;;;;;5048907;28;20479;-54
2023/04/04 07:57:32;;;;;;;2.67;2.47;;;4.50;99.90;;;;;;5047610;28;20504;-54
2023/04/04 08:00:01;;;;;;;1.80;1.70;;;4.40;99.90;;;;;;5049223;28;20461;-54
2023/04/04 08:02:27;;;;;;;4.07;2.00;;;4.90;99.90;;;;;;5049448;28;20463;-55
2023/04/04 08:04:54;;;;;;;2.50;1.53;;;4.30;99.90;;;;;;5038637;28;20534;-56
2023/04/04 08:07:21;;;;;;;4.00;2.27;;;4.20;99.90;;;;;;5022209;28;20469;-55
2023/04/04 08:09:47;;;;;;;2.83;1.90;;;4.10;99.90;;;;;;5021781;28;20512;-54
2023/04/04 08:12:14;;;;;;;4.80;2.40;;;4.50;99.90;;;;;;5021154;28;20469;-55
2023/04/04 08:14:41;;;;;;;9.70;2.23;;;4.50;99.90;;;;;;5025188;28;20499;-56
2023/04/04 08:17:08;;;;;;;7.03;2.23;;;4.20;99.90;;;;;;5025678;28;20530;-56
2023/04/04 08:19:35;;;;;;;4.80;1.90;;;4.20;99.90;;;;;;5021689;28;20467;-55
2023/04/04 08:22:02;;;;;;;2.20;2.00;;;4.40;99.90;;;;;;5029225;28;21017;-54
2023/04/04 08:24:28;;;;;;;2.60;2.20;;;4.60;99.90;;;;;;5036625;28;20465;-57
2023/04/04 08:26:55;;;;;;;6.20;2.63;;;4.80;99.90;;;;;;5045478;28;20484;-57
2023/04/04 08:29:22;;;;;;;4.00;2.77;;;4.90;99.90;;;;;;5032445;28;20544;-54
2023/04/04 08:31:48;;;;;;;3.43;1.77;;;4.60;99.90;;;;;;5035209;28;20482;-54
2023/04/04 08:34:16;;;;;;;4.73;1.70;;;4.60;99.90;;;;;;5034503;28;20474;-53
2023/04/04 08:36:43;;;;;;;5.03;2.50;;;4.90;99.90;;;;;;5022910;28;20520;-55
2023/04/04 08:39:10;;;;;;;2.93;1.50;;;5.30;99.90;;;;;;5029151;28;21239;-54
2023/04/04 08:41:37;;;;;;;1.90;1.60;;;5.70;99.90;;;;;;5041868;28;20525;-54
2023/04/04 08:44:06;;;;;;;2.00;1.90;;;6.60;99.90;;;;;;5038474;28;20460;-54
2023/04/04 08:46:32;;;;;;;2.60;1.70;;;7.00;99.90;;;;;;5033874;28;20476;-55
2023/04/04 08:49:00;;;;;;;3.60;1.83;;;6.30;99.90;;;;;;5039014;28;20457;-55
2023/04/04 08:51:31;;;;;;;4.87;1.73;;;6.30;99.90;;;;;;5034854;28;20515;-56
2023/04/04 08:53:59;;;;;;;5.00;1.90;;;5.60;99.90;;;;;;5039988;28;20479;-56
2023/04/04 08:56:27;;;;;;;3.17;1.73;;;5.30;99.90;;;;;;5031231;28;20489;-54
2023/04/04 08:58:54;;;;;;;1.93;1.77;;;5.00;99.90;;;;;;5029440;28;20540;-55
2023/04/04 09:01:22;;;;;;;2.03;1.93;;;4.70;99.90;;;;;;5044527;28;20886;-55
2023/04/04 09:03:50;;;;;;;3.60;2.60;;;4.60;99.90;;;;;;5026187;28;20460;-55
2023/04/04 09:06:19;;;;;;;1.70;1.43;;;4.30;99.90;;;;;;5033256;28;20535;-56
2023/04/04 09:08:47;;;;;;;2.30;2.10;;;4.30;99.90;;;;;;5030828;28;20476;-54
2023/04/04 09:11:16;;;;;;;2.60;2.40;;;4.40;99.90;;;;;;5032724;28;20601;-55
2023/04/04 09:13:45;;;;;;;5.20;1.63;;;5.50;99.90;;;;;;5036500;28;20488;-54
2023/04/04 09:16:12;;;;;;;7.60;2.57;;;5.90;99.90;;;;;;5033343;28;20538;-53
2023/04/04 09:18:39;;;;;;;1.90;1.60;;;6.90;99.90;;;;;;5036503;28;20456;-56
2023/04/04 09:21:10;;;;;;;1.73;1.30;;;7.60;99.90;;;;;;5036489;28;20461;-53
2023/04/04 09:23:36;;;;;;;1.40;1.30;;;7.90;99.90;;;;;;5027649;28;20469;-54
2023/04/04 09:26:05;;;;;;;2.20;1.93;;;8.20;99.90;;;;;;5036542;28;20507;-56
2023/04/04 09:28:33;;;;;;;2.87;2.00;;;9.00;99.90;;;;;;5031536;28;20465;-57
2023/04/04 09:31:03;;;;;;;2.33;1.67;;;8.60;99.90;;;;;;5051391;28;20554;-54
2023/04/04 09:33:31;;;;;;;5.90;3.43;;;7.50;99.90;;;;;;5044752;28;20526;-56
2023/04/04 09:36:01;;;;;;;2.97;1.60;;;7.50;99.90;;;;;;5024003;28;21024;-55
2023/04/04 09:38:29;;;;;;;1.50;1.40;;;7.60;99.90;;;;;;5024423;28;20541;-56
2023/04/04 09:40:56;;;;;;;1.33;1.23;;;8.30;99.90;;;;;;5056546;28;20488;-57
2023/04/04 09:43:25;;;;;;;3.77;1.90;;;8.10;99.90;;;;;;5046199;28;20461;-53
2023/04/04 09:45:54;;;;;;;2.97;2.00;;;9.50;99.90;;;;;;5044469;28;20519;-57
2023/04/04 09:48:26;;;;;;;7.10;2.67;;;8.40;99.90;;;;;;5051020;28;20478;-56
2023/04/04 09:50:52;;;;;;;3.83;3.20;;;9.30;99.90;;;;;;5050519;28;21079;-55
2023/04/04 09:53:19;;;;;;;3.00;2.30;;;8.90;99.90;;;;;;5041248;28;20588;-54
2023/04/04 09:55:50;;;;;;;1.80;1.43;;;8.80;99.90;;;;;;5047204;28;20522;-53
2023/04/04 09:58:18;;;;;;;2.50;2.07;;;7.30;99.90;;;;;;5048924;28;21151;-54
2023/04/04 10:00:48;;;;;;;3.10;1.87;;;7.60;99.90;;;;;;5049699;28;20444;-54
2023/04/04 10:03:16;;;;;;;3.83;1.83;;;7.30;99.90;;;;;;5051337;28;20455;-55
2023/04/04 10:05:44;;;;;;;1.83;1.73;;;8.00;99.90;;;;;;5054454;28;20531;-55
2023/04/04 10:08:15;;;;;;;2.17;2.00;;;9.00;99.90;;;;;;5050968;28;20453;-54
2023/04/04 10:10:47;;;;;;;2.13;1.73;;;9.40;99.90;;;;;;5041504;28;20617;-55
2023/04/04 10:13:13;;;;;;;1.43;1.33;;;9.10;99.90;;;;;;5043276;28;21266;-55
2023/04/04 10:15:44;;;;;;;2.37;2.17;;;7.70;99.90;;;;;;5039921;28;20496;-56
2023/04/04 10:18:12;;;;;;;9.07;5.23;;;7.50;99.90;;;;;;5044040;28;20872;-55
2023/04/04 10:20:39;;;;;;;2.33;2.00;;;7.60;99.90;;;;;;5039097;28;20892;-57
2023/04/04 10:23:06;;;;;;;3.33;2.77;;;7.40;99.90;;;;;;5040108;28;20837;-54
2023/04/04 10:25:33;;;;;;;7.83;4.87;;;7.00;99.90;;;;;;5036767;28;20547;-54
2023/04/04 10:27:59;;;;;;;2.50;2.30;;;6.60;99.90;;;;;;5046786;28;20547;-50
2023/04/04 10:30:26;;;;;;;3.00;1.70;;;7.70;99.90;;;;;;5044876;28;20460;-51
2023/04/04 10:33:01;;;;;;;2.97;2.10;;;8.20;99.90;;;;;;5048931;28;20447;-51
2023/04/04 10:35:30;;;;;;;1.60;1.50;;;7.70;99.90;;;;;;5053672;28;20466;-51
2023/04/04 10:37:58;;;;;;;2.13;2.00;;;8.30;99.90;;;;;;5045561;28;20472;-53
2023/04/04 10:40:31;;;;;;;1.47;1.37;;;9.90;99.90;;;;;;5053602;28;20495;-51
2023/04/04 10:43:02;;;;;;;1.83;1.43;;;10.40;99.90;;;;;;5050360;28;20513;-51
2023/04/04 10:45:31;;;;;;;5.07;2.13;;;10.30;99.90;;;;;;5046818;28;20492;-54
2023/04/04 10:47:58;;;;;;;2.63;1.37;;;11.00;99.90;;;;;;5047862;28;20455;-59
2023/04/04 10:50:25;;;;;;;2.10;1.30;;;9.10;99.90;;;;;;5050542;28;20466;-52
2023/04/04 10:52:53;;;;;;;4.97;1.30;;;10.00;99.90;;;;;;5036320;28;20492;-53
2023/04/04 10:55:20;;;;;;;2.13;1.57;;;10.90;99.90;;;;;;5043352;28;20925;-51
2023/04/04 10:57:51;;;;;;;2.40;2.13;;;9.10;99.90;;;;;;5044496;28;20492;-52
2023/04/04 11:00:22;;;;;;;2.50;2.30;;;8.30;99.90;;;;;;5041981;28;20462;-53
2023/04/04 11:02:53;;;;;;;3.37;2.10;;;8.70;99.90;;;;;;5043403;28;20523;-52
2023/04/04 11:05:22;;;;;;;1.63;1.30;;;9.80;99.90;;;;;;5040421;28;20480;-56
2023/04/04 11:07:56;;;;;;;2.90;2.47;;;9.80;99.90;;;;;;5039695;28;20461;-51
2023/04/04 11:10:24;;;;;;;1.87;1.30;;;8.50;99.90;;;;;;5044058;28;20464;-52
2023/04/04 11:12:55;;;;;;;4.30;1.37;;;8.00;99.90;;;;;;5046700;28;20466;-53
2023/04/04 11:15:23;;;;;;;4.97;1.60;;;8.00;99.90;;;;;;5045465;28;20545;-53
2023/04/04 11:17:57;;;;;;;3.67;2.90;;;8.00;99.90;;;;;;5032824;23;20549;-53
2023/04/04 11:20:29;;;;;;;3.83;1.77;;;7.40;99.90;;;;;;4997506;28;20552;-50
2023/04/04 11:23:19;;;;;;;1.33;1.30;;;7.60;99.90;;;;;;4991380;28;20495;-51
2023/04/04 11:25:50;;;;;;;1.33;1.20;;;7.70;99.90;;;;;;4983938;28;20898;-51
2023/04/04 11:28:42;;;;;;;3.17;1.87;;;7.90;99.90;;;;;;4993819;28;20999;-52
2023/04/04 11:31:26;;;;;;;2.20;1.37;;;7.30;99.90;;;;;;4987014;28;20494;-51
2023/04/04 11:34:02;;;;;;;2.50;1.23;;;7.80;99.90;;;;;;4993309;28;20803;-50
2023/04/04 11:36:56;;;;;;;1.13;0.93;;;8.40;99.90;;;;;;4993092;28;20509;-51
2023/04/04 11:39:29;;;;;;;2.20;1.30;;;8.80;99.90;;;;;;4968422;28;20467;-50
2023/04/04 11:42:02;;;;;;;1.37;1.00;;;8.30;99.90;;;;;;4990018;28;20458;-51
2023/04/04 11:44:30;;;;;;;2.77;1.30;;;8.70;99.90;;;;;;4991326;28;20464;-51
2023/04/04 11:47:01;;;;;;;3.03;1.60;;;8.70;99.90;;;;;;4989511;28;20488;-50
2023/04/04 11:49:29;;;;;;;1.30;1.10;;;8.00;99.90;;;;;;4989478;28;20498;-50
2023/04/04 11:51:56;;;;;;;1.73;1.20;;;7.50;99.90;;;;;;4988606;28;20484;-50
2023/04/04 11:54:23;;;;;;;7.67;2.10;;;7.50;99.90;;;;;;4991965;28;20533;-51
2023/04/04 11:56:51;;;;;;;10.93;1.80;;;7.90;99.90;;;;;;4990367;28;20549;-50
2023/04/04 11:59:20;;;;;;;1.43;1.33;;;8.80;99.90;;;;;;4991491;28;20468;-49
2023/04/04 12:01:48;;;;;;;2.83;1.40;;;8.40;99.90;;;;;;4989628;28;20893;-49
2023/04/04 12:04:17;;;;;;;2.13;1.80;;;8.70;99.90;;;;;;4989042;28;20463;-50
2023/04/04 12:06:43;;;;;;;2.80;1.83;;;8.70;99.90;;;;;;4994750;28;20471;-50
2023/04/04 12:09:16;;;;;;;4.00;1.10;;;9.30;99.90;;;;;;4989165;28;20551;-50
2023/04/04 12:11:43;;;;;;;3.17;1.47;;;9.20;99.90;;;;;;4989197;28;20503;-50
2023/04/04 12:14:17;;;;;;;1.10;1.00;;;9.00;99.90;;;;;;4989232;28;20486;-50
2023/04/04 12:16:44;;;;;;;2.30;1.33;;;9.00;99.90;;;;;;4983920;28;20495;-50
2023/04/04 12:19:11;;;;;;;2.20;1.37;;;9.10;99.90;;;;;;4990280;28;20518;-50
2023/04/04 12:21:38;;;;;;;2.20;1.47;;;9.10;99.90;;;;;;4988966;28;20923;-50
2023/04/04 12:24:05;;;;;;;1.80;1.30;;;9.40;99.90;;;;;;4989164;28;20551;-50
2023/04/04 12:26:32;;;;;;;2.70;1.20;;;9.30;99.90;;;;;;4988550;28;20518;-50
2023/04/04 12:28:59;;;;;;;6.90;1.50;;;9.50;99.90;;;;;;4986092;28;20468;-50
2023/04/04 12:31:28;;;;;;;2.20;1.60;;;9.80;99.90;;;;;;4975955;28;20565;-50
2023/04/04 12:33:55;;;;;;;2.20;1.50;;;9.70;99.90;;;;;;4977011;28;21051;-50
2023/04/04 12:36:25;;;;;;;4.30;2.03;;;9.00;99.90;;;;;;4988998;28;21223;-51
2023/04/04 12:38:59;;;;;;;3.13;1.93;;;9.00;99.90;;;;;;4989461;28;20676;-50
2023/04/04 12:41:26;;;;;;;2.43;2.07;;;8.50;99.90;;;;;;4985182;28;20881;-50
2023/04/04 12:44:01;;;;;;;2.23;1.40;;;7.70;99.90;;;;;;4985618;28;20482;-50
2023/04/04 12:46:34;;;;;;;3.90;1.50;;;7.90;99.90;;;;;;4982951;28;20467;-50
2023/04/04 12:49:01;;;;;;;4.40;1.93;;;8.50;99.90;;;;;;4983268;28;20540;-50
2023/04/04 12:51:32;;;;;;;2.37;1.47;;;9.80;99.90;;;;;;4984546;28;20992;-50
2023/04/04 12:53:59;;;;;;;1.13;0.90;;;9.80;99.90;;;;;;4987780;28;20464;-50